createdAt,value
2018-02-06T00:00:01.784Z,1016.50
2018-02-06T00:01:01.017Z,1016.43
2018-02-06T00:02:01.006Z,1016.46
2018-02-06T00:03:01.003Z,1016.43
2018-02-06T00:04:00.999Z,1016.44
2018-02-06T00:05:00.981Z,1016.39
2018-02-06T00:06:00.999Z,1016.38
2018-02-06T00:07:00.972Z,1016.49
2018-02-06T00:08:00.975Z,1016.46
2018-02-06T00:09:00.976Z,1016.45
2018-02-06T00:10:01.000Z,1016.42
2018-02-06T00:11:00.973Z,1016.38
2018-02-06T00:12:01.067Z,1016.35
2018-02-06T00:13:01.058Z,1016.33
2018-02-06T00:14:00.944Z,1016.29
2018-02-06T00:15:00.932Z,1016.31
2018-02-06T00:16:00.937Z,1016.24
2018-02-06T00:17:00.930Z,1016.24
2018-02-06T00:18:00.935Z,1016.30
2018-02-06T00:19:00.953Z,1016.21
2018-02-06T00:20:00.920Z,1016.22
2018-02-06T00:21:00.904Z,1016.16
2018-02-06T00:22:00.929Z,1016.17
2018-02-06T00:23:00.905Z,1016.13
2018-02-06T00:24:00.905Z,1016.10
2018-02-06T00:25:00.900Z,1016.03
2018-02-06T00:26:00.890Z,1015.98
2018-02-06T00:27:00.888Z,1015.97
2018-02-06T00:28:00.886Z,1015.92
2018-02-06T00:29:00.875Z,1015.99
2018-02-06T00:30:00.872Z,1015.92
2018-02-06T00:31:00.870Z,1015.95
2018-02-06T00:32:00.869Z,1015.91
2018-02-06T00:33:00.857Z,1015.84
2018-02-06T00:34:00.847Z,1015.86
2018-02-06T00:35:00.856Z,1015.82
2018-02-06T00:36:00.834Z,1015.80
2018-02-06T00:37:00.842Z,1015.79
2018-02-06T00:38:00.839Z,1015.80
2018-02-06T00:39:00.845Z,1015.76
2018-02-06T00:40:00.826Z,1015.76
2018-02-06T00:41:00.814Z,1015.77
2018-02-06T00:42:00.823Z,1015.71
2018-02-06T00:43:00.815Z,1015.71
2018-02-06T00:44:01.789Z,1015.68
2018-02-06T00:45:00.815Z,1015.71
2018-02-06T00:46:00.792Z,1015.74
2018-02-06T00:47:00.795Z,1015.69
2018-02-06T00:48:00.797Z,1015.68
2018-02-06T00:49:00.782Z,1015.66
2018-02-06T00:50:00.782Z,1015.62
2018-02-06T00:51:00.781Z,1015.59
2018-02-06T00:52:00.763Z,1015.58
2018-02-06T00:53:00.772Z,1015.49
2018-02-06T00:54:00.775Z,1015.55
2018-02-06T00:55:00.766Z,1015.52
2018-02-06T00:56:00.756Z,1015.51
2018-02-06T00:57:00.825Z,1015.47
2018-02-06T00:58:00.748Z,1015.46
2018-02-06T00:59:00.746Z,1015.44
2018-02-06T01:00:00.739Z,1015.48
2018-02-06T01:01:00.767Z,1015.45
2018-02-06T01:02:00.745Z,1015.43
2018-02-06T01:03:00.726Z,1015.43
2018-02-06T01:04:00.718Z,1015.44
2018-02-06T01:05:00.712Z,1015.44
2018-02-06T01:06:00.703Z,1015.37
2018-02-06T01:07:00.701Z,1015.38
2018-02-06T01:08:00.698Z,1015.38
2018-02-06T01:09:00.700Z,1015.33
2018-02-06T01:10:00.680Z,1015.36
2018-02-06T01:11:00.681Z,1015.35
2018-02-06T01:12:00.692Z,1015.34
2018-02-06T01:13:00.786Z,1015.35
2018-02-06T01:14:00.664Z,1015.34
2018-02-06T01:15:00.663Z,1015.32
2018-02-06T01:16:00.707Z,1015.30
2018-02-06T01:17:00.655Z,1015.32
2018-02-06T01:18:00.649Z,1015.21
2018-02-06T01:19:00.648Z,1015.24
2018-02-06T01:20:00.629Z,1015.24
2018-02-06T01:21:00.630Z,1015.25
2018-02-06T01:22:00.650Z,1015.24
2018-02-06T01:23:00.643Z,1015.23
2018-02-06T01:24:00.620Z,1015.20
2018-02-06T01:25:00.620Z,1015.19
2018-02-06T01:26:00.611Z,1015.19
2018-02-06T01:27:00.615Z,1015.17
2018-02-06T01:28:00.596Z,1015.14
2018-02-06T01:29:00.614Z,1015.13
2018-02-06T01:30:00.602Z,1015.10
2018-02-06T01:31:00.584Z,1015.08
2018-02-06T01:32:00.597Z,1015.09
2018-02-06T01:33:00.580Z,1015.08
2018-02-06T01:34:00.585Z,1015.11
2018-02-06T01:35:00.564Z,1015.07
2018-02-06T01:36:00.577Z,1015.02
2018-02-06T01:37:00.554Z,1015.00
2018-02-06T01:38:00.556Z,1014.95
2018-02-06T01:39:00.551Z,1014.92
2018-02-06T01:40:00.641Z,1014.94
2018-02-06T01:41:01.283Z,1014.85
2018-02-06T01:42:00.534Z,1014.89
2018-02-06T01:43:00.532Z,1014.85
2018-02-06T01:44:00.587Z,1014.81
2018-02-06T01:45:00.524Z,1014.79
2018-02-06T01:46:00.518Z,1014.80
2018-02-06T01:47:00.509Z,1014.79
2018-02-06T01:48:00.501Z,1014.73
2018-02-06T01:49:00.501Z,1014.74
2018-02-06T01:50:00.502Z,1014.72
2018-02-06T01:51:00.502Z,1014.72
2018-02-06T01:52:00.495Z,1014.70
2018-02-06T01:53:00.478Z,1014.71
2018-02-06T01:54:00.560Z,1014.69
2018-02-06T01:55:00.481Z,1014.66
2018-02-06T01:56:00.471Z,1014.69
2018-02-06T01:57:00.480Z,1014.65
2018-02-06T01:58:00.461Z,1014.59
2018-02-06T01:59:00.460Z,1014.58
2018-02-06T02:00:01.286Z,1014.50
2018-02-06T02:01:00.451Z,1014.49
2018-02-06T02:02:00.442Z,1014.51
2018-02-06T02:03:00.440Z,1014.49
2018-02-06T02:04:00.414Z,1014.53
2018-02-06T02:05:00.420Z,1014.52
2018-02-06T02:06:00.414Z,1014.49
2018-02-06T02:07:00.411Z,1014.45
2018-02-06T02:08:00.411Z,1014.44
2018-02-06T02:09:00.433Z,1014.48
2018-02-06T02:10:01.280Z,1014.43
2018-02-06T02:11:00.399Z,1014.44
2018-02-06T02:12:00.381Z,1014.45
2018-02-06T02:13:00.388Z,1014.44
2018-02-06T02:14:00.383Z,1014.41
2018-02-06T02:15:00.381Z,1014.40
2018-02-06T02:16:00.370Z,1014.37
2018-02-06T02:17:00.369Z,1014.31
2018-02-06T02:18:00.378Z,1014.32
2018-02-06T02:19:00.356Z,1014.33
2018-02-06T02:20:00.347Z,1014.30
2018-02-06T02:21:00.351Z,1014.36
2018-02-06T02:22:00.344Z,1014.23
2018-02-06T02:23:00.340Z,1014.24
2018-02-06T02:24:00.339Z,1014.24
2018-02-06T02:25:00.323Z,1014.27
2018-02-06T02:26:00.326Z,1014.17
2018-02-06T02:27:00.325Z,1014.15
2018-02-06T02:28:00.319Z,1014.14
2018-02-06T02:29:00.302Z,1014.14
2018-02-06T02:30:00.315Z,1014.16
2018-02-06T02:31:00.305Z,1014.19
2018-02-06T02:32:00.300Z,1014.18
2018-02-06T02:33:00.289Z,1014.17
2018-02-06T02:34:00.284Z,1014.21
2018-02-06T02:35:00.270Z,1014.14
2018-02-06T02:36:00.282Z,1014.15
2018-02-06T02:37:00.271Z,1014.14
2018-02-06T02:38:00.255Z,1014.07
2018-02-06T02:39:00.265Z,1014.07
2018-02-06T02:40:00.255Z,1014.07
2018-02-06T02:41:00.260Z,1014.05
2018-02-06T04:38:59.686Z,1013.01
2018-02-06T04:39:59.647Z,1013.03
2018-02-06T04:40:59.650Z,1013.00
2018-02-06T04:41:59.648Z,1013.03
2018-02-06T04:42:59.648Z,1012.99
2018-02-06T04:43:59.637Z,1013.02
2018-02-06T04:44:59.625Z,1013.04
2018-02-06T04:45:59.620Z,1012.98
2018-02-06T04:46:59.626Z,1012.98
2018-02-06T04:47:59.614Z,1013.04
2018-02-06T04:48:59.629Z,1012.96
2018-02-06T04:49:59.662Z,1012.96
2018-02-06T04:50:59.596Z,1012.91
2018-02-06T04:51:59.594Z,1012.93
2018-02-06T04:52:59.583Z,1012.93
2018-02-06T04:53:59.577Z,1012.96
2018-02-06T04:54:59.590Z,1012.94
2018-02-06T04:55:59.571Z,1012.91
2018-02-06T04:56:59.573Z,1012.89
2018-02-06T04:57:59.564Z,1013.01
2018-02-06T04:58:59.569Z,1012.95
2018-02-06T04:59:59.553Z,1012.85
2018-02-06T05:00:59.547Z,1012.91
2018-02-06T05:01:59.544Z,1012.87
2018-02-06T05:02:59.528Z,1012.88
2018-02-06T05:03:59.527Z,1012.87
2018-02-06T05:04:59.525Z,1012.83
2018-02-06T05:05:59.527Z,1012.84
2018-02-06T05:06:59.530Z,1012.83
2018-02-06T05:07:59.626Z,1012.80
2018-02-06T05:08:59.509Z,1012.80
2018-02-06T05:09:59.497Z,1012.79
2018-02-06T05:10:59.494Z,1012.81
2018-02-06T05:11:59.495Z,1012.77
2018-02-06T05:12:59.476Z,1012.78
2018-02-06T05:13:59.475Z,1012.76
2018-02-06T05:14:59.478Z,1012.69
2018-02-06T05:15:59.469Z,1012.71
2018-02-06T05:16:59.467Z,1012.70
2018-02-06T05:17:59.460Z,1012.71
2018-02-06T05:18:59.459Z,1012.67
2018-02-06T05:19:59.444Z,1012.64
2018-02-06T05:21:00.291Z,1012.66
2018-02-06T05:21:59.444Z,1012.69
2018-02-06T05:22:59.429Z,1012.60
2018-02-06T05:23:59.435Z,1012.67
2018-02-06T05:24:59.433Z,1012.62
2018-02-06T05:25:59.416Z,1012.64
2018-02-06T05:26:59.411Z,1012.63
2018-02-06T05:27:59.411Z,1012.57
2018-02-06T05:28:59.400Z,1012.57
2018-02-06T05:29:59.390Z,1012.62
2018-02-06T05:30:59.394Z,1012.56
2018-02-06T05:31:59.403Z,1012.67
2018-02-06T05:32:59.384Z,1012.50
2018-02-06T05:33:59.450Z,1012.55
2018-02-06T05:34:59.373Z,1012.54
2018-02-06T05:35:59.371Z,1012.49
2018-02-06T05:36:59.352Z,1012.50
2018-02-06T05:37:59.358Z,1012.51
2018-02-06T05:38:59.349Z,1012.47
2018-02-06T05:39:59.344Z,1012.47
2018-02-06T05:40:59.329Z,1012.49
2018-02-06T05:41:59.328Z,1012.43
2018-02-06T05:42:59.320Z,1012.42
2018-02-06T05:43:59.329Z,1012.37
2018-02-06T05:44:59.320Z,1012.41
2018-02-06T05:45:59.313Z,1012.31
2018-02-06T05:46:59.312Z,1012.30
2018-02-06T05:47:59.299Z,1012.31
2018-02-06T05:48:59.300Z,1012.25
2018-02-06T05:49:59.295Z,1012.25
2018-02-06T05:50:59.303Z,1012.28
2018-02-06T05:51:59.275Z,1012.27
2018-02-06T05:52:59.286Z,1012.30
2018-02-06T05:53:59.274Z,1012.26
2018-02-06T05:54:59.271Z,1012.30
2018-02-06T05:55:59.261Z,1012.30
2018-02-06T05:56:59.257Z,1012.27
2018-02-06T05:57:59.260Z,1012.25
2018-02-06T05:58:59.251Z,1012.26
2018-02-06T05:59:59.240Z,1012.24
2018-02-06T06:00:59.243Z,1012.19
2018-02-06T06:01:59.234Z,1012.19
2018-02-06T06:02:59.226Z,1012.17
2018-02-06T06:03:59.234Z,1012.16
2018-02-06T06:04:59.208Z,1012.12
2018-02-06T06:05:59.213Z,1012.08
2018-02-06T06:06:59.202Z,1012.07
2018-02-06T06:07:59.208Z,1012.15
2018-02-06T06:08:59.185Z,1012.09
2018-02-06T06:09:59.188Z,1012.12
2018-02-06T06:10:59.185Z,1012.10
2018-02-06T06:11:59.179Z,1012.07
2018-02-06T06:12:59.172Z,1012.08
2018-02-06T06:13:59.167Z,1012.03
2018-02-06T06:14:59.156Z,1012.00
2018-02-06T06:15:59.161Z,1012.01
2018-02-06T06:16:59.151Z,1011.97
2018-02-06T06:17:59.148Z,1011.97
2018-02-06T06:18:59.155Z,1011.98
2018-02-06T06:19:59.142Z,1011.92
2018-02-06T06:20:59.218Z,1011.91
2018-02-06T06:21:59.120Z,1011.94
2018-02-06T06:22:59.116Z,1011.92
2018-02-06T06:23:59.109Z,1011.90
2018-02-06T06:24:59.112Z,1011.92
2018-02-06T06:25:59.104Z,1011.87
2018-02-06T06:26:59.103Z,1011.85
2018-02-06T06:27:59.097Z,1011.88
2018-02-06T06:28:59.090Z,1011.92
2018-02-06T06:29:59.076Z,1011.85
2018-02-06T06:30:59.081Z,1011.80
2018-02-06T06:31:59.078Z,1011.80
2018-02-06T06:32:59.067Z,1011.72
2018-02-06T06:33:59.791Z,1011.73
2018-02-06T06:34:59.067Z,1011.68
2018-02-06T06:35:59.051Z,1011.61
2018-02-06T06:36:59.055Z,1011.59
2018-02-06T06:37:59.049Z,1011.64
2018-02-06T06:38:59.041Z,1011.59
2018-02-06T06:39:59.033Z,1011.60
2018-02-06T06:40:59.031Z,1011.73
2018-02-06T06:41:59.016Z,1011.70
2018-02-06T06:42:59.024Z,1011.71
2018-02-06T06:43:59.020Z,1011.71
2018-02-06T06:44:59.002Z,1011.76
2018-02-06T06:45:59.077Z,1011.75
2018-02-06T06:46:59.007Z,1011.69
2018-02-06T06:47:58.989Z,1011.70
2018-02-06T06:48:58.989Z,1011.64
2018-02-06T06:49:58.972Z,1011.67
2018-02-06T06:50:58.978Z,1011.62
2018-02-06T06:51:58.980Z,1011.65
2018-02-06T06:52:58.966Z,1011.69
2018-02-06T06:53:58.975Z,1011.63
2018-02-06T06:54:59.086Z,1011.65
2018-02-06T06:55:59.010Z,1011.57
2018-02-06T06:56:58.946Z,1011.57
2018-02-06T06:57:58.951Z,1011.62
2018-02-06T06:58:59.190Z,1011.61
2018-02-06T06:59:58.933Z,1011.67
2018-02-06T07:00:58.932Z,1011.78
2018-02-06T07:01:58.917Z,1011.64
2018-02-06T07:02:58.915Z,1011.65
2018-02-06T07:03:58.902Z,1011.64
2018-02-06T07:04:58.906Z,1011.61
2018-02-06T07:05:58.896Z,1011.62
2018-02-06T07:06:58.891Z,1011.65
2018-02-06T07:07:58.889Z,1011.60
2018-02-06T07:08:58.888Z,1011.62
2018-02-06T07:09:58.878Z,1011.65
2018-02-06T07:10:58.929Z,1011.56
2018-02-06T07:11:58.866Z,1011.65
2018-02-06T07:12:58.868Z,1011.70
2018-02-06T07:13:58.857Z,1011.63
2018-02-06T07:14:58.849Z,1011.59
2018-02-06T07:15:58.887Z,1011.61
2018-02-06T07:16:58.839Z,1011.60
2018-02-06T07:17:58.862Z,1011.58
2018-02-06T07:18:58.839Z,1011.59
2018-02-06T07:19:58.826Z,1011.59
2018-02-06T07:20:58.820Z,1011.56
2018-02-06T07:21:58.821Z,1011.58
2018-02-06T07:22:58.826Z,1011.59
2018-02-06T07:23:58.824Z,1011.56
2018-02-06T07:24:58.791Z,1011.53
2018-02-06T07:25:58.789Z,1011.54
2018-02-06T07:26:58.783Z,1011.52
2018-02-06T07:27:58.780Z,1011.55
2018-02-06T07:28:58.780Z,1011.48
2018-02-06T07:29:58.778Z,1011.49
2018-02-06T07:30:58.757Z,1011.51
2018-02-06T07:31:58.764Z,1011.52
2018-02-06T07:32:58.759Z,1011.52
2018-02-06T07:33:58.754Z,1011.51
2018-02-06T07:34:58.751Z,1011.51
2018-02-06T07:35:58.739Z,1011.54
2018-02-06T07:36:58.748Z,1011.54
2018-02-06T07:37:58.732Z,1011.54
2018-02-06T07:38:58.723Z,1011.55
2018-02-06T07:39:58.727Z,1011.53
2018-02-06T07:40:58.715Z,1011.56
2018-02-06T07:41:58.706Z,1011.52
2018-02-06T07:42:58.703Z,1011.55
2018-02-06T07:43:58.717Z,1011.57
2018-02-06T07:44:58.696Z,1011.61
2018-02-06T07:45:58.705Z,1011.57
2018-02-06T07:46:58.689Z,1011.54
2018-02-06T07:47:58.673Z,1011.51
2018-02-06T07:48:58.668Z,1011.54
2018-02-06T07:49:58.674Z,1011.51
2018-02-06T07:50:58.705Z,1011.50
2018-02-06T07:51:58.664Z,1011.52
2018-02-06T07:52:58.658Z,1011.49
2018-02-06T07:53:58.654Z,1011.51
2018-02-06T07:54:58.733Z,1011.49
2018-02-06T07:55:58.660Z,1011.51
2018-02-06T07:56:58.634Z,1011.53
2018-02-06T07:57:58.637Z,1011.49
2018-02-06T07:58:58.629Z,1011.50
2018-02-06T07:59:58.615Z,1011.52
2018-02-06T08:00:58.612Z,1011.59
2018-02-06T08:01:58.615Z,1011.51
2018-02-06T08:02:58.606Z,1011.56
2018-02-06T08:03:58.603Z,1011.54
2018-02-06T08:04:58.593Z,1011.62
2018-02-06T08:05:58.589Z,1011.55
2018-02-06T08:06:58.585Z,1011.61
2018-02-06T08:07:58.730Z,1011.62
2018-02-06T08:08:58.574Z,1011.62
2018-02-06T08:09:58.579Z,1011.68
2018-02-06T08:10:58.571Z,1011.73
2018-02-06T08:11:58.578Z,1011.66
2018-02-06T08:12:58.555Z,1011.68
2018-02-06T08:13:58.547Z,1011.71
2018-02-06T08:14:58.547Z,1011.73
2018-02-06T08:15:58.537Z,1011.73
2018-02-06T08:16:58.533Z,1011.77
2018-02-06T08:17:58.529Z,1011.76
2018-02-06T08:18:58.536Z,1011.76
2018-02-06T08:19:58.525Z,1011.86
2018-02-06T08:20:58.520Z,1011.82
2018-02-06T08:21:58.522Z,1011.79
2018-02-06T08:22:58.504Z,1011.76
2018-02-06T08:23:58.521Z,1011.75
2018-02-06T08:24:58.511Z,1011.71
2018-02-06T08:25:58.529Z,1011.66
2018-02-06T08:26:58.491Z,1011.71
2018-02-06T08:27:58.503Z,1011.73
2018-02-06T08:28:58.506Z,1011.72
2018-02-06T08:29:58.502Z,1011.69
2018-02-06T08:30:58.494Z,1011.66
2018-02-06T08:31:58.478Z,1011.68
2018-02-06T08:32:58.476Z,1011.72
2018-02-06T08:33:58.480Z,1011.75
2018-02-06T08:34:58.477Z,1011.69
2018-02-06T08:35:58.480Z,1011.77
2018-02-06T08:36:58.488Z,1011.75
2018-02-06T08:37:58.473Z,1011.70
2018-02-06T08:38:58.467Z,1011.68
2018-02-06T08:39:58.458Z,1011.63
2018-02-06T08:40:58.462Z,1011.67
2018-02-06T08:41:58.458Z,1011.73
2018-02-06T08:42:58.478Z,1011.68
2018-02-06T08:43:58.461Z,1011.68
2018-02-06T08:44:58.471Z,1011.68
2018-02-06T08:45:58.449Z,1011.71
2018-02-06T08:46:58.448Z,1011.71
2018-02-06T08:47:58.446Z,1011.73
2018-02-06T08:48:58.450Z,1011.72
2018-02-06T08:49:58.452Z,1011.56
2018-02-06T08:50:58.460Z,1011.59
2018-02-06T08:51:58.446Z,1011.60
2018-02-06T08:52:58.451Z,1011.54
2018-02-06T08:53:58.450Z,1011.47
2018-02-06T08:54:58.499Z,1011.44
2018-02-06T08:55:58.463Z,1011.40
2018-02-06T08:56:58.433Z,1011.37
2018-02-06T08:57:58.443Z,1011.35
2018-02-06T08:58:58.438Z,1011.30
2018-02-06T08:59:58.432Z,1011.35
2018-02-06T09:00:58.447Z,1011.37
2018-02-06T09:01:58.452Z,1011.33
2018-02-06T09:02:58.459Z,1011.31
2018-02-06T09:03:58.429Z,1011.31
2018-02-06T09:04:58.448Z,1011.26
2018-02-06T09:05:58.431Z,1011.25
2018-02-06T09:06:58.416Z,1011.21
2018-02-06T09:07:58.556Z,1011.16
2018-02-06T09:08:58.420Z,1011.20
2018-02-06T09:09:58.412Z,1011.15
2018-02-06T09:10:58.476Z,1011.23
2018-02-06T09:11:58.419Z,1011.23
2018-02-06T09:12:58.421Z,1011.20
2018-02-06T09:13:58.413Z,1011.28
2018-02-06T09:14:58.427Z,1011.38
2018-02-06T09:15:58.400Z,1011.43
2018-02-06T09:16:58.401Z,1011.42
2018-02-06T09:17:58.399Z,1011.49
2018-02-06T09:18:58.406Z,1011.48
2018-02-06T09:19:58.416Z,1011.53
2018-02-06T09:20:58.381Z,1011.59
2018-02-06T09:21:58.432Z,1011.58
2018-02-06T09:22:58.390Z,1011.64
2018-02-06T09:23:58.427Z,1011.68
2018-02-06T09:24:58.391Z,1011.71
2018-02-06T09:25:58.382Z,1011.70
2018-02-06T09:26:58.370Z,1011.66
2018-02-06T09:27:58.376Z,1011.68
2018-02-06T09:28:58.389Z,1011.64
2018-02-06T09:29:58.374Z,1011.61
2018-02-06T09:30:58.368Z,1011.57
2018-02-06T09:31:58.430Z,1011.66
2018-02-06T09:32:58.367Z,1011.66
2018-02-06T09:33:58.357Z,1011.63
2018-02-06T09:34:58.369Z,1011.59
2018-02-06T09:35:58.368Z,1011.55
2018-02-06T09:36:58.359Z,1011.58
2018-02-06T09:37:58.348Z,1011.66
2018-02-06T09:38:58.345Z,1011.59
2018-02-06T09:39:58.352Z,1011.62
2018-02-06T09:40:58.348Z,1011.59
2018-02-06T09:41:58.352Z,1011.62
2018-02-06T09:42:58.370Z,1011.56
2018-02-06T09:43:58.341Z,1011.64
2018-02-06T09:44:58.455Z,1011.74
2018-02-06T09:45:58.354Z,1011.70
2018-02-06T09:46:58.337Z,1011.78
2018-02-06T09:47:58.341Z,1011.77
2018-02-06T09:48:58.341Z,1011.77
2018-02-06T09:49:58.335Z,1011.80
2018-02-06T09:50:58.358Z,1011.72
2018-02-06T09:51:58.328Z,1011.76
2018-02-06T09:52:58.347Z,1011.68
2018-02-06T09:53:58.341Z,1011.68
2018-02-06T09:54:58.333Z,1011.67
2018-02-06T09:55:58.332Z,1011.68
2018-02-06T09:56:58.347Z,1011.78
2018-02-06T09:57:58.331Z,1011.84
2018-02-06T09:58:58.343Z,1011.81
2018-02-06T09:59:58.334Z,1011.72
2018-02-06T10:00:58.370Z,1011.72
2018-02-06T10:01:58.334Z,1011.62
2018-02-06T10:02:58.333Z,1011.58
2018-02-06T10:03:58.328Z,1011.53
2018-02-06T10:04:58.330Z,1011.49
2018-02-06T10:05:58.337Z,1011.50
2018-02-06T10:06:58.352Z,1011.45
2018-02-06T10:07:58.336Z,1011.48
2018-02-06T10:08:58.323Z,1011.46
2018-02-06T10:09:58.340Z,1011.33
2018-02-06T10:10:58.394Z,1011.28
2018-02-06T10:11:58.346Z,1011.24
2018-02-06T10:12:58.314Z,1011.30
2018-02-06T10:13:58.321Z,1011.25
2018-02-06T10:14:58.327Z,1011.18
2018-02-06T10:15:58.340Z,1011.24
2018-02-06T10:16:58.903Z,1011.12
2018-02-06T10:17:58.313Z,1011.09
2018-02-06T10:18:58.314Z,1011.06
2018-02-06T10:19:58.318Z,1011.05
2018-02-06T10:20:58.319Z,1011.10
2018-02-06T10:21:58.316Z,1011.05
2018-02-06T10:22:58.313Z,1011.12
2018-02-06T10:23:58.328Z,1011.14
2018-02-06T10:24:58.322Z,1011.11
2018-02-06T10:25:58.306Z,1011.13
2018-02-06T10:26:58.316Z,1011.14
2018-02-06T10:27:58.317Z,1011.08
2018-02-06T10:28:58.313Z,1011.04
2018-02-06T10:29:58.301Z,1011.03
2018-02-06T10:30:58.295Z,1011.01
2018-02-06T10:31:58.297Z,1011.09
2018-02-06T10:32:58.292Z,1011.16
2018-02-06T10:33:58.292Z,1011.13
2018-02-06T10:34:58.298Z,1011.14
2018-02-06T10:35:58.285Z,1011.07
2018-02-06T10:36:58.310Z,1011.09
2018-02-06T10:37:58.292Z,1011.06
2018-02-06T10:38:58.363Z,1011.11
2018-02-06T10:39:58.295Z,1011.10
2018-02-06T10:40:58.284Z,1011.18
2018-02-06T10:41:58.287Z,1011.19
2018-02-06T10:42:58.284Z,1011.13
2018-02-06T10:43:58.294Z,1011.10
2018-02-06T10:44:58.338Z,1011.08
2018-02-06T10:45:58.299Z,1011.05
2018-02-06T10:46:58.318Z,1011.04
2018-02-06T10:47:58.297Z,1011.00
2018-02-06T10:48:58.286Z,1011.01
2018-02-06T10:49:58.282Z,1010.89
2018-02-06T10:50:58.290Z,1010.85
2018-02-06T10:51:58.360Z,1010.79
2018-02-06T10:52:58.284Z,1010.80
2018-02-06T10:53:58.277Z,1010.82
2018-02-06T10:54:58.266Z,1010.81
2018-02-06T10:55:58.253Z,1010.80
2018-02-06T10:56:58.263Z,1010.79
2018-02-06T10:57:58.275Z,1010.79
2018-02-06T10:58:58.280Z,1010.82
2018-02-06T10:59:58.262Z,1010.92
2018-02-06T11:00:58.256Z,1010.97
2018-02-06T11:01:58.271Z,1011.03
2018-02-06T11:02:58.264Z,1010.92
2018-02-06T11:03:58.274Z,1010.90
2018-02-06T11:04:58.834Z,1010.93
2018-02-06T11:05:58.259Z,1011.02
2018-02-06T11:06:58.265Z,1010.99
2018-02-06T11:07:58.286Z,1011.01
2018-02-06T11:08:58.259Z,1010.97
2018-02-06T11:09:58.247Z,1010.95
2018-02-06T11:10:58.240Z,1010.88
2018-02-06T11:11:58.251Z,1010.85
2018-02-06T11:12:58.255Z,1010.83
2018-02-06T11:13:58.261Z,1010.76
2018-02-06T11:14:58.261Z,1010.71
2018-02-06T11:15:58.278Z,1010.80
2018-02-06T11:16:58.240Z,1010.84
2018-02-06T11:17:58.239Z,1010.85
2018-02-06T11:18:58.237Z,1010.75
2018-02-06T11:19:58.245Z,1010.73
2018-02-06T11:20:58.241Z,1010.73
2018-02-06T11:21:58.229Z,1010.79
2018-02-06T11:22:58.235Z,1010.69
2018-02-06T11:23:58.236Z,1010.72
2018-02-06T11:24:58.230Z,1010.67
2018-02-06T11:25:58.834Z,1010.61
2018-02-06T11:26:58.231Z,1010.56
2018-02-06T11:27:58.221Z,1010.57
2018-02-06T11:28:58.844Z,1010.58
2018-02-06T11:29:58.216Z,1010.58
2018-02-06T11:30:58.229Z,1010.52
2018-02-06T11:31:58.227Z,1010.57
2018-02-06T11:32:58.215Z,1010.55
2018-02-06T11:33:58.226Z,1010.52
2018-02-06T11:34:58.237Z,1010.46
2018-02-06T11:35:58.216Z,1010.41
2018-02-06T11:36:58.203Z,1010.41
2018-02-06T11:37:58.202Z,1010.37
2018-02-06T11:38:58.848Z,1010.37
2018-02-06T11:39:58.213Z,1010.35
2018-02-06T11:40:58.216Z,1010.31
2018-02-06T11:41:58.226Z,1010.35
2018-02-06T11:42:58.203Z,1010.42
2018-02-06T11:43:58.194Z,1010.40
2018-02-06T11:44:58.208Z,1010.41
2018-02-06T11:45:58.233Z,1010.31
2018-02-06T11:46:58.206Z,1010.28
2018-02-06T11:47:58.203Z,1010.25
2018-02-06T11:48:58.199Z,1010.20
2018-02-06T11:49:58.201Z,1010.19
2018-02-06T11:50:58.189Z,1010.18
2018-02-06T11:51:58.840Z,1010.19
2018-02-06T11:52:58.196Z,1010.20
2018-02-06T11:53:58.188Z,1010.22
2018-02-06T11:54:58.214Z,1010.25
2018-02-06T11:55:58.188Z,1010.24
2018-02-06T11:56:58.188Z,1010.26
2018-02-06T11:57:58.177Z,1010.30
2018-02-06T11:58:58.178Z,1010.28
2018-02-06T11:59:58.189Z,1010.26
2018-02-06T12:00:58.194Z,1010.29
2018-02-06T12:01:58.182Z,1010.26
2018-02-06T12:02:58.176Z,1010.29
2018-02-06T12:03:58.159Z,1010.31
2018-02-06T12:04:58.167Z,1010.28
2018-02-06T12:05:58.165Z,1010.12
2018-02-06T12:06:58.168Z,1010.11
2018-02-06T12:07:58.187Z,1010.02
2018-02-06T12:08:58.167Z,1010.00
2018-02-06T12:09:58.152Z,1010.02
2018-02-06T12:10:58.163Z,1010.01
2018-02-06T12:11:58.161Z,1009.96
2018-02-06T12:12:58.268Z,1009.96
2018-02-06T12:13:58.176Z,1010.00
2018-02-06T12:14:58.169Z,1010.09
2018-02-06T12:15:58.157Z,1010.02
2018-02-06T12:17:43.428Z,1009.89
2018-02-06T12:20:16.285Z,1009.83
2018-02-06T12:21:16.242Z,1009.82
2018-02-06T12:22:16.239Z,1009.85
2018-02-06T12:23:16.239Z,1009.82
2018-02-06T12:24:16.231Z,1009.82
2018-02-06T12:25:16.270Z,1009.75
2018-02-06T12:26:16.229Z,1009.82
2018-02-06T12:27:16.222Z,1009.76
2018-02-06T12:28:16.257Z,1009.76
2018-02-06T12:29:16.233Z,1009.66
2018-02-06T12:30:16.710Z,1009.62
2018-02-06T12:31:16.228Z,1009.62
2018-02-06T12:32:16.231Z,1009.55
2018-02-06T12:33:16.240Z,1009.55
2018-02-06T12:34:16.233Z,1009.53
2018-02-06T12:35:16.233Z,1009.54
2018-02-06T12:36:16.219Z,1009.47
2018-02-06T12:37:16.214Z,1009.49
2018-02-06T12:38:16.209Z,1009.50
2018-02-06T12:39:16.231Z,1009.62
2018-02-06T12:40:16.213Z,1009.45
2018-02-06T12:41:16.211Z,1009.40
2018-02-06T12:42:16.210Z,1009.36
2018-02-06T12:43:16.710Z,1009.35
2018-02-06T12:44:16.205Z,1009.35
2018-02-06T12:45:16.213Z,1009.42
2018-02-06T12:46:16.243Z,1009.36
2018-02-06T12:47:16.204Z,1009.35
2018-02-06T12:48:16.211Z,1009.35
2018-02-06T12:49:16.190Z,1009.32
2018-02-06T12:50:16.191Z,1009.32
2018-02-06T12:51:16.195Z,1009.35
2018-02-06T12:52:16.205Z,1009.33
2018-02-06T12:53:16.182Z,1009.33
2018-02-06T12:54:16.178Z,1009.34
2018-02-06T12:55:16.194Z,1009.25
2018-02-06T12:56:16.263Z,1009.31
2018-02-06T12:57:16.187Z,1009.31
2018-02-06T12:58:16.177Z,1009.23
2018-02-06T12:59:16.240Z,1009.22
2018-02-06T13:00:16.193Z,1009.24
2018-02-06T13:01:16.173Z,1009.25
2018-02-06T13:02:16.174Z,1009.22
2018-02-06T13:03:16.177Z,1009.18
2018-02-06T13:04:16.212Z,1009.22
2018-02-06T13:05:16.207Z,1009.22
2018-02-06T13:06:16.158Z,1009.24
2018-02-06T13:07:16.159Z,1009.21
2018-02-06T13:08:16.165Z,1009.23
2018-02-06T13:09:16.301Z,1009.23
2018-02-06T13:10:16.163Z,1009.24
2018-02-06T13:11:16.177Z,1009.21
2018-02-06T13:12:16.175Z,1009.23
2018-02-06T13:13:16.149Z,1009.21
2018-02-06T13:14:16.193Z,1009.16
2018-02-06T13:15:16.154Z,1009.24
2018-02-06T13:16:16.162Z,1009.20
2018-02-06T13:17:16.168Z,1009.15
2018-02-06T13:18:16.156Z,1009.11
2018-02-06T13:19:16.163Z,1009.11
2018-02-06T13:20:16.143Z,1009.11
2018-02-06T13:21:16.138Z,1009.05
2018-02-06T13:22:16.154Z,1009.02
2018-02-06T13:23:16.150Z,1009.01
2018-02-06T13:24:16.130Z,1008.98
2018-02-06T13:25:16.175Z,1008.88
2018-02-06T13:26:16.125Z,1008.90
2018-02-06T13:27:16.149Z,1008.92
2018-02-06T13:28:16.259Z,1008.84
2018-02-06T13:29:16.137Z,1008.84
2018-02-06T13:30:16.132Z,1008.84
2018-02-06T13:31:16.152Z,1008.84
2018-02-06T13:32:16.119Z,1008.89
2018-02-06T13:33:16.120Z,1008.97
2018-02-06T13:34:16.142Z,1008.94
2018-02-06T13:35:16.160Z,1008.87
2018-02-06T13:36:16.112Z,1008.93
2018-02-06T13:37:16.090Z,1008.85
2018-02-06T13:38:16.136Z,1008.79
2018-02-06T13:39:16.088Z,1008.73
2018-02-06T13:40:16.116Z,1008.71
2018-02-06T13:41:16.076Z,1008.68
2018-02-06T13:42:16.098Z,1008.62
2018-02-06T13:43:16.126Z,1008.56
2018-02-06T13:44:16.118Z,1008.56
2018-02-06T13:45:16.115Z,1008.61
2018-02-06T13:46:16.130Z,1008.60
2018-02-06T13:47:16.071Z,1008.60
2018-02-06T13:48:16.097Z,1008.61
2018-02-06T13:49:16.072Z,1008.58
2018-02-06T13:50:16.126Z,1008.59
2018-02-06T13:51:16.070Z,1008.59
2018-02-06T13:52:16.063Z,1008.57
2018-02-06T13:53:16.061Z,1008.61
2018-02-06T13:54:16.059Z,1008.59
2018-02-06T13:55:16.058Z,1008.60
2018-02-06T13:56:16.735Z,1008.59
2018-02-06T13:57:16.121Z,1008.55
2018-02-06T13:58:16.050Z,1008.59
2018-02-06T13:59:16.043Z,1008.63
2018-02-06T14:00:16.038Z,1008.55
2018-02-06T14:01:16.040Z,1008.55
2018-02-06T14:02:16.034Z,1008.50
2018-02-06T14:03:16.031Z,1008.53
2018-02-06T14:04:16.049Z,1008.54